Time;durP1;ratioP1;P1;durP2;ratioP2;P2;SDS_P1;SDS_P2;PMS_P1;PMS_P2;Temp;Humidity;BMP_temperature;BMP_pressure;BME280_temperature;BME280_humidity;BME280_pressure;Samples;Min_cycle;Max_cycle;Signal;HPM_P1;HPM_P2
2022/04/23 00:00:14;;;;;;;;;;;;;;;;;;5052709;28;19912;-86
2022/04/23 00:02:41;;;;;;;;;;;;;;;;;;5053910;28;19924;-86
2022/04/23 00:05:06;;;;;;;;;;;;;;;;;;5068383;28;19913;-86
2022/04/23 00:07:31;;;;;;;;;;;;;;;;;;5072699;28;20309;-86
2022/04/23 00:09:56;;;;;;;;;;;;;;;;;;5072732;28;20383;-86
2022/04/23 00:12:23;;;;;;;;;;;;;;;;;;5072709;28;19916;-86
2022/04/23 00:14:48;;;;;;;;;;;;;;;;;;5073925;28;19992;-86
2022/04/23 00:17:13;;;;;;;;;;;;;;;;;;5068216;28;20007;-87
2022/04/23 00:19:40;;;;;;;;;;;;;;;;;;5071062;28;20015;-86
2022/04/23 00:22:05;;;;;;;;;;;;;;;;;;5072381;28;19919;-86
2022/04/23 00:24:31;;;;;;;;;;;;;;;;;;5072446;28;19909;-86
2022/04/23 00:26:56;;;;;;;;;;;;;;;;;;5072500;28;19915;-86
2022/04/23 00:29:21;;;;;;;;;;;;;;;;;;5068555;28;19913;-87
2022/04/23 00:31:46;;;;;;;;;;;;;;;;;;5052263;28;20272;-86
2022/04/23 00:34:12;;;;;;;;;;;;;;;;;;5052149;28;19954;-86
2022/04/23 00:36:37;;;;;;;;;;;;;;;;;;5051760;28;19954;-86
2022/04/23 00:39:02;;;;;;;;;;;;;;;;;;5052198;28;19969;-86
2022/04/23 00:41:46;;;;;;;;;;;;;;;;;;5066821;28;19913;-86
2022/04/23 00:44:11;;;;;;;;;;;;;;;;;;5073295;28;19913;-86
2022/04/23 00:46:36;;;;;;;;;;;;;;;;;;5071765;28;20387;-86
2022/04/23 00:49:03;;;;;;;;;;;;;;;;;;5053036;28;19948;-85
2022/04/23 00:51:28;;;;;;;;;;;;;;;;;;5053408;28;19915;-86
2022/04/23 00:53:53;;;;;;;;;;;;;;;;;;5100789;28;19912;-86
2022/04/23 00:56:18;;;;;;;;;;;;;;;;;;5072084;28;19908;-86
2022/04/23 00:58:43;;;;;;;;;;;;;;;;;;5072033;28;19908;-86
2022/04/23 01:01:08;;;;;;;;;;;;;;;;;;5071946;28;19912;-86
2022/04/23 01:03:34;;;;;;;;;;;;;;;;;;5071913;28;19919;-86
2022/04/23 01:05:59;;;;;;;;;;;;;;;;;;5067824;28;19918;-86
2022/04/23 01:08:26;;;;;;;;;;;;;;;;;;5051829;28;19913;-87
2022/04/23 01:10:52;;;;;;;;;;;;;;;;;;5051640;28;19913;-86
2022/04/23 01:13:17;;;;;;;;;;;;;;;;;;5051835;28;19920;-86
2022/04/23 01:15:43;;;;;;;;;;;;;;;;;;5052161;28;19909;-86
2022/04/23 01:18:08;;;;;;;;;;;;;;;;;;5071968;28;20605;-86
2022/04/23 01:20:34;;;;;;;;;;;;;;;;;;5071683;28;19908;-86
2022/04/23 01:22:59;;;;;;;;;;;;;;;;;;5071135;28;20279;-86
2022/04/23 01:25:26;;;;;;;;;;;;;;;;;;5067915;28;19912;-86
2022/04/23 01:27:51;;;;;;;;;;;;;;;;;;5051703;28;19909;-86
2022/04/23 01:30:16;;;;;;;;;;;;;;;;;;5052868;28;19909;-86
2022/04/23 01:32:41;;;;;;;;;;;;;;;;;;5051821;28;20307;-86
2022/04/23 01:35:06;;;;;;;;;;;;;;;;;;5066822;28;19912;-86
2022/04/23 01:37:32;;;;;;;;;;;;;;;;;;5071731;28;19908;-86
2022/04/23 01:39:57;;;;;;;;;;;;;;;;;;5073018;28;19912;-87
2022/04/23 01:42:22;;;;;;;;;;;;;;;;;;5071378;28;20343;-87
2022/04/23 01:44:47;;;;;;;;;;;;;;;;;;5071428;28;20025;-86
2022/04/23 01:47:12;;;;;;;;;;;;;;;;;;5070486;28;19920;-86
2022/04/23 01:49:37;;;;;;;;;;;;;;;;;;5074931;28;20260;-86
2022/04/23 01:52:02;;;;;;;;;;;;;;;;;;5076164;28;19905;-86
2022/04/23 01:54:27;;;;;;;;;;;;;;;;;;5076307;28;19915;-86
2022/04/23 01:56:53;;;;;;;;;;;;;;;;;;5074426;28;19904;-85
2022/04/23 01:59:18;;;;;;;;;;;;;;;;;;5076484;28;19943;-86
2022/04/23 02:01:43;;;;;;;;;;;;;;;;;;5075997;28;19936;-86
2022/04/23 02:04:08;;;;;;;;;;;;;;;;;;5076354;28;20610;-86
2022/04/23 02:06:33;;;;;;;;;;;;;;;;;;5075007;28;19912;-86
2022/04/23 02:08:59;;;;;;;;;;;;;;;;;;5074236;28;19927;-86
2022/04/23 02:11:24;;;;;;;;;;;;;;;;;;5074956;28;19959;-86
2022/04/23 02:13:49;;;;;;;;;;;;;;;;;;5074778;28;20395;-86
2022/04/23 02:16:14;;;;;;;;;;;;;;;;;;5074720;28;19948;-86
2022/04/23 02:18:39;;;;;;;;;;;;;;;;;;5074934;28;19908;-86
2022/04/23 02:21:04;;;;;;;;;;;;;;;;;;5074602;28;19909;-86
2022/04/23 02:23:31;;;;;;;;;;;;;;;;;;5070641;28;19913;-86
2022/04/23 02:25:56;;;;;;;;;;;;;;;;;;5054676;28;19951;-86
2022/04/23 02:28:21;;;;;;;;;;;;;;;;;;5054491;28;19940;-86
2022/04/23 02:30:46;;;;;;;;;;;;;;;;;;5054825;28;19909;-87
2022/04/23 02:33:14;;;;;;;;;;;;;;;;;;5074446;28;19912;-86
2022/04/23 02:35:39;;;;;;;;;;;;;;;;;;5075735;28;20299;-86
2022/04/23 02:38:04;;;;;;;;;;;;;;;;;;5075564;28;19908;-86
2022/04/23 02:40:30;;;;;;;;;;;;;;;;;;5074064;28;19908;-86
2022/04/23 02:42:55;;;;;;;;;;;;;;;;;;5069887;28;19917;-86
2022/04/23 02:45:20;;;;;;;;;;;;;;;;;;5054262;28;19909;-87
2022/04/23 02:47:45;;;;;;;;;;;;;;;;;;5055504;28;19921;-86
2022/04/23 02:50:10;;;;;;;;;;;;;;;;;;5054156;28;20254;-86
2022/04/23 02:52:35;;;;;;;;;;;;;;;;;;5053993;28;19913;-86
2022/04/23 02:55:00;;;;;;;;;;;;;;;;;;5071791;28;19912;-86
2022/04/23 02:57:25;;;;;;;;;;;;;;;;;;5074088;28;19916;-86
2022/04/23 02:59:50;;;;;;;;;;;;;;;;;;5073970;28;20275;-87
2022/04/23 03:02:16;;;;;;;;;;;;;;;;;;5073993;28;20383;-87
2022/04/23 03:04:42;;;;;;;;;;;;;;;;;;5073999;28;19912;-86
2022/04/23 03:07:07;;;;;;;;;;;;;;;;;;5074159;28;19913;-87
2022/04/23 03:09:32;;;;;;;;;;;;;;;;;;5073695;28;20356;-87
2022/04/23 03:11:57;;;;;;;;;;;;;;;;;;5073806;28;19908;-86
2022/04/23 03:14:22;;;;;;;;;;;;;;;;;;5074967;28;19908;-87
2022/04/23 03:16:47;;;;;;;;;;;;;;;;;;5072552;28;19992;-86
2022/04/23 03:19:13;;;;;;;;;;;;;;;;;;5074823;28;19908;-86
2022/04/23 03:21:38;;;;;;;;;;;;;;;;;;5073591;28;20441;-86
2022/04/23 03:24:03;;;;;;;;;;;;;;;;;;5073608;28;19908;-86
2022/04/23 03:26:28;;;;;;;;;;;;;;;;;;5073401;28;19916;-87
2022/04/23 03:28:53;;;;;;;;;;;;;;;;;;5072393;28;19931;-86
2022/04/23 03:31:18;;;;;;;;;;;;;;;;;;5073256;28;19943;-86
2022/04/23 03:33:44;;;;;;;;;;;;;;;;;;5073303;28;19911;-87
2022/04/23 03:36:10;;;;;;;;;;;;;;;;;;5074490;28;19909;-86
2022/04/23 03:38:36;;;;;;;;;;;;;;;;;;5073320;28;19912;-87
2022/04/23 03:41:02;;;;;;;;;;;;;;;;;;5072288;28;20379;-87
2022/04/23 03:43:27;;;;;;;;;;;;;;;;;;5072877;28;19966;-86
2022/04/23 03:45:52;;;;;;;;;;;;;;;;;;5072832;28;19909;-86
2022/04/23 03:48:18;;;;;;;;;;;;;;;;;;5073025;28;19920;-86
2022/04/23 03:50:43;;;;;;;;;;;;;;;;;;5073080;28;19909;-86
2022/04/23 03:53:08;;;;;;;;;;;;;;;;;;5068870;28;19964;-87
2022/04/23 03:55:34;;;;;;;;;;;;;;;;;;5054334;28;19909;-86
2022/04/23 03:57:59;;;;;;;;;;;;;;;;;;5052973;28;19921;-85
2022/04/23 04:00:24;;;;;;;;;;;;;;;;;;5052721;28;19909;-86
2022/04/23 04:02:49;;;;;;;;;;;;;;;;;;5053963;28;19936;-86
2022/04/23 04:05:15;;;;;;;;;;;;;;;;;;5061495;28;20011;-86
2022/04/23 04:07:40;;;;;;;;;;;;;;;;;;5072695;28;19908;-86
2022/04/23 04:10:05;;;;;;;;;;;;;;;;;;5073817;28;19909;-87
2022/04/23 04:12:30;;;;;;;;;;;;;;;;;;5073472;28;19909;-86
2022/04/23 04:14:57;;;;;;;;;;;;;;;;;;5073106;28;19912;-87
2022/04/23 04:17:22;;;;;;;;;;;;;;;;;;5068349;28;20012;-86
2022/04/23 04:19:47;;;;;;;;;;;;;;;;;;5052956;28;19948;-86
2022/04/23 04:22:13;;;;;;;;;;;;;;;;;;5052325;28;19955;-86
2022/04/23 04:24:38;;;;;;;;;;;;;;;;;;5053845;28;20391;-87
2022/04/23 04:27:04;;;;;;;;;;;;;;;;;;5052579;28;19913;-86
2022/04/23 04:29:29;;;;;;;;;;;;;;;;;;5062587;28;19916;-86
2022/04/23 04:31:54;;;;;;;;;;;;;;;;;;5072372;28;20390;-86
2022/04/23 04:34:19;;;;;;;;;;;;;;;;;;5072268;28;19909;-86
2022/04/23 04:36:45;;;;;;;;;;;;;;;;;;5073598;28;19916;-86
2022/04/23 04:39:10;;;;;;;;;;;;;;;;;;5073585;28;20318;-86
2022/04/23 04:41:35;;;;;;;;;;;;;;;;;;5068024;28;19912;-87
2022/04/23 04:44:00;;;;;;;;;;;;;;;;;;5052074;28;20007;-86
2022/04/23 04:46:25;;;;;;;;;;;;;;;;;;5051948;28;20007;-86
2022/04/23 04:48:52;;;;;;;;;;;;;;;;;;5052118;28;19908;-86
2022/04/23 04:51:17;;;;;;;;;;;;;;;;;;5052284;28;20446;-86
2022/04/23 04:53:42;;;;;;;;;;;;;;;;;;5064054;28;20401;-87
2022/04/23 04:56:07;;;;;;;;;;;;;;;;;;5071808;28;19913;-86
2022/04/23 04:58:32;;;;;;;;;;;;;;;;;;5073371;28;19962;-86
2022/04/23 05:00:57;;;;;;;;;;;;;;;;;;5073270;28;19908;-87
2022/04/23 05:03:23;;;;;;;;;;;;;;;;;;5073161;28;19913;-86
2022/04/23 05:05:48;;;;;;;;;;;;;;;;;;5068150;28;19928;-86
2022/04/23 05:08:13;;;;;;;;;;;;;;;;;;5051909;28;19916;-86
2022/04/23 05:10:38;;;;;;;;;;;;;;;;;;5051870;28;19916;-86
2022/04/23 05:13:03;;;;;;;;;;;;;;;;;;5051779;28;19909;-86
2022/04/23 05:15:28;;;;;;;;;;;;;;;;;;5051738;28;19913;-86
2022/04/23 05:17:54;;;;;;;;;;;;;;;;;;5059536;28;20027;-86
2022/04/23 05:20:19;;;;;;;;;;;;;;;;;;5085279;28;20012;-86
2022/04/23 05:22:44;;;;;;;;;;;;;;;;;;5053584;28;20265;-86
2022/04/23 05:25:09;;;;;;;;;;;;;;;;;;5055707;28;19913;-86
2022/04/23 05:27:34;;;;;;;;;;;;;;;;;;5055752;28;19909;-86
2022/04/23 05:29:59;;;;;;;;;;;;;;;;;;5067846;28;19916;-86
2022/04/23 05:32:25;;;;;;;;;;;;;;;;;;5075360;28;20352;-86
2022/04/23 05:34:50;;;;;;;;;;;;;;;;;;5075605;28;19908;-86
2022/04/23 05:37:15;;;;;;;;;;;;;;;;;;5071533;28;19923;-87
2022/04/23 05:39:40;;;;;;;;;;;;;;;;;;5067225;28;19913;-86
2022/04/23 05:42:05;;;;;;;;;;;;;;;;;;5074741;28;19917;-86
2022/04/23 05:44:30;;;;;;;;;;;;;;;;;;5073222;28;19912;-86
2022/04/23 05:46:55;;;;;;;;;;;;;;;;;;5068340;28;19920;-86
2022/04/23 05:49:20;;;;;;;;;;;;;;;;;;5074036;28;19958;-86
2022/04/23 05:51:45;;;;;;;;;;;;;;;;;;5076499;28;19974;-86
2022/04/23 05:54:10;;;;;;;;;;;;;;;;;;5075308;28;19940;-86
2022/04/23 05:56:36;;;;;;;;;;;;;;;;;;5071245;28;20423;-86
2022/04/23 05:59:01;;;;;;;;;;;;;;;;;;5054996;28;19909;-86
2022/04/23 06:01:26;;;;;;;;;;;;;;;;;;5059246;28;19923;-86
2022/04/23 06:03:51;;;;;;;;;;;;;;;;;;5076177;28;19951;-87
2022/04/23 06:06:16;;;;;;;;;;;;;;;;;;5075027;28;19959;-87
2022/04/23 06:08:41;;;;;;;;;;;;;;;;;;5074737;28;19947;-87
2022/04/23 06:11:06;;;;;;;;;;;;;;;;;;5076256;28;19944;-86
2022/04/23 06:13:32;;;;;;;;;;;;;;;;;;5074548;28;19960;-86
2022/04/23 06:15:57;;;;;;;;;;;;;;;;;;5074893;28;19959;-86
2022/04/23 06:18:22;;;;;;;;;;;;;;;;;;5074785;28;20011;-86
2022/04/23 06:20:47;;;;;;;;;;;;;;;;;;5074160;28;19953;-86
2022/04/23 06:23:12;;;;;;;;;;;;;;;;;;5070277;28;20326;-87
2022/04/23 06:25:37;;;;;;;;;;;;;;;;;;5069387;28;20375;-87
2022/04/23 06:28:02;;;;;;;;;;;;;;;;;;5072754;28;20842;-87
2022/04/23 06:30:28;;;;;;;;;;;;;;;;;;5074478;28;20276;-87
2022/04/23 06:32:53;;;;;;;;;;;;;;;;;;5074489;28;20360;-87
2022/04/23 06:35:18;;;;;;;;;;;;;;;;;;5074206;28;19971;-86
2022/04/23 06:37:44;;;;;;;;;;;;;;;;;;5074349;28;20383;-86
2022/04/23 06:40:11;;;;;;;;;;;;;;;;;;5070719;28;19913;-86
2022/04/23 06:42:36;;;;;;;;;;;;;;;;;;5068705;28;19977;-86
2022/04/23 06:45:01;;;;;;;;;;;;;;;;;;5072832;28;19912;-86
2022/04/23 06:47:26;;;;;;;;;;;;;;;;;;5073322;28;19916;-87
2022/04/23 06:49:51;;;;;;;;;;;;;;;;;;5070389;28;19912;-86
2022/04/23 06:52:16;;;;;;;;;;;;;;;;;;5066797;28;19916;-86
2022/04/23 06:54:41;;;;;;;;;;;;;;;;;;5072883;28;19999;-86
2022/04/23 06:57:06;;;;;;;;;;;;;;;;;;5075041;28;19965;-87
2022/04/23 06:59:31;;;;;;;;;;;;;;;;;;5073843;28;20261;-86
2022/04/23 07:02:01;;;;;;;;;;;;;;;;;;5073732;28;19965;-87
2022/04/23 07:04:27;;;;;;;;;;;;;;;;;;5072614;28;19909;-86
2022/04/23 07:06:52;;;;;;;;;;;;;;;;;;5069806;28;20407;-87
2022/04/23 07:09:17;;;;;;;;;;;;;;;;;;5070396;28;19924;-86
2022/04/23 07:11:42;;;;;;;;;;;;;;;;;;5073695;28;19912;-86
2022/04/23 07:14:07;;;;;;;;;;;;;;;;;;5073422;28;19913;-86
2022/04/23 07:16:32;;;;;;;;;;;;;;;;;;5072963;28;19913;-87
2022/04/23 07:18:58;;;;;;;;;;;;;;;;;;5069820;28;19995;-86
2022/04/23 07:21:23;;;;;;;;;;;;;;;;;;5066418;28;19912;-87
2022/04/23 07:24:05;;;;;;;;;;;;;;;;;;5074445;28;20131;-87
2022/04/23 07:26:31;;;;;;;;;;;;;;;;;;5069776;28;20007;-87
2022/04/23 07:28:57;;;;;;;;;;;;;;;;;;5066505;28;20363;-87
2022/04/23 07:31:22;;;;;;;;;;;;;;;;;;5073714;28;19916;-86
2022/04/23 07:39:15;;;;;;;;;;;;;;;;;;5072583;28;19975;-87
2022/04/23 07:41:40;;;;;;;;;;;;;;;;;;5054285;28;19913;-87
2022/04/23 07:44:05;;;;;;;;;;;;;;;;;;5053297;28;19913;-87
2022/04/23 07:46:30;;;;;;;;;;;;;;;;;;5052247;28;19921;-86
2022/04/23 07:48:57;;;;;;;;;;;;;;;;;;5053230;28;20360;-86
2022/04/23 07:51:22;;;;;;;;;;;;;;;;;;5053852;28;19916;-86
2022/04/23 07:53:47;;;;;;;;;;;;;;;;;;5069888;28;19909;-86
2022/04/23 07:56:12;;;;;;;;;;;;;;;;;;5072094;28;19913;-86
2022/04/23 07:58:37;;;;;;;;;;;;;;;;;;5072860;28;19909;-86
2022/04/23 08:01:02;;;;;;;;;;;;;;;;;;5072737;28;19926;-86
2022/04/23 08:03:28;;;;;;;;;;;;;;;;;;5068905;28;19920;-87
2022/04/23 08:05:53;;;;;;;;;;;;;;;;;;5052807;28;19944;-87
2022/04/23 08:08:19;;;;;;;;;;;;;;;;;;5052670;28;19971;-87
2022/04/23 08:10:44;;;;;;;;;;;;;;;;;;5054146;28;20382;-86
2022/04/23 08:13:09;;;;;;;;;;;;;;;;;;5065749;28;19913;-86
2022/04/23 08:15:35;;;;;;;;;;;;;;;;;;5072688;28;19908;-86
2022/04/23 08:18:00;;;;;;;;;;;;;;;;;;5072732;28;19957;-86
2022/04/23 08:20:26;;;;;;;;;;;;;;;;;;5072525;28;20314;-86
2022/04/23 08:22:51;;;;;;;;;;;;;;;;;;5072498;28;19919;-86
2022/04/23 08:25:16;;;;;;;;;;;;;;;;;;5068401;28;19913;-86
2022/04/23 08:27:41;;;;;;;;;;;;;;;;;;5052363;28;19908;-86
2022/04/23 08:32:50;;;;;;;;;;;;;;;;;;5053749;28;19924;-86
2022/04/23 08:35:15;;;;;;;;;;;;;;;;;;5052721;28;19917;-86
2022/04/23 08:37:40;;;;;;;;;;;;;;;;;;5072360;28;19912;-86
2022/04/23 08:40:05;;;;;;;;;;;;;;;;;;5072389;28;19916;-86
2022/04/23 08:42:31;;;;;;;;;;;;;;;;;;5073542;28;20314;-86
2022/04/23 08:44:57;;;;;;;;;;;;;;;;;;5072160;28;19962;-86
2022/04/23 08:47:22;;;;;;;;;;;;;;;;;;5071181;28;19916;-86
2022/04/23 08:49:49;;;;;;;;;;;;;;;;;;5052052;28;19920;-86
2022/04/23 08:52:14;;;;;;;;;;;;;;;;;;5053387;28;19908;-86
2022/04/23 08:54:39;;;;;;;;;;;;;;;;;;5053532;28;19920;-86
2022/04/23 08:57:05;;;;;;;;;;;;;;;;;;5053234;28;19909;-86
2022/04/23 08:59:30;;;;;;;;;;;;;;;;;;5057292;28;19917;-87
2022/04/23 09:01:55;;;;;;;;;;;;;;;;;;5057551;28;19917;-86
2022/04/23 09:04:20;;;;;;;;;;;;;;;;;;5056334;28;19908;-86
2022/04/23 09:06:45;;;;;;;;;;;;;;;;;;5056132;28;19912;-87
2022/04/23 09:09:10;;;;;;;;;;;;;;;;;;5056084;28;19916;-86
2022/04/23 09:11:35;;;;;;;;;;;;;;;;;;5071314;28;20288;-86
2022/04/23 09:14:01;;;;;;;;;;;;;;;;;;5056269;28;19908;-86
2022/04/23 09:24:37;;;;;;;;;;;;;;;;;;5077363;28;19950;-86
2022/04/23 09:27:03;;;;;;;;;;;;;;;;;;5075854;28;19916;-86
2022/04/23 09:29:30;;;;;;;;;;;;;;;;;;5077020;28;20292;-86
2022/04/23 09:31:56;;;;;;;;;;;;;;;;;;5075769;28;20280;-87
2022/04/23 09:34:22;;;;;;;;;;;;;;;;;;5074948;28;19934;-86
2022/04/23 09:36:47;;;;;;;;;;;;;;;;;;5077107;28;19908;-86
2022/04/23 09:39:12;;;;;;;;;;;;;;;;;;5075679;28;19931;-85
2022/04/23 09:41:37;;;;;;;;;;;;;;;;;;5075558;28;19908;-86
2022/04/23 09:44:02;;;;;;;;;;;;;;;;;;5075520;28;19909;-86
2022/04/23 09:46:28;;;;;;;;;;;;;;;;;;5071275;28;20357;-86
2022/04/23 09:48:53;;;;;;;;;;;;;;;;;;5055425;28;19934;-87
2022/04/23 09:51:18;;;;;;;;;;;;;;;;;;5055560;28;19971;-86
2022/04/23 09:53:43;;;;;;;;;;;;;;;;;;5055591;28;20353;-86
2022/04/23 09:56:10;;;;;;;;;;;;;;;;;;5055482;28;20433;-86
2022/04/23 09:58:35;;;;;;;;;;;;;;;;;;5057528;28;19913;-87
2022/04/23 10:01:01;;;;;;;;;;;;;;;;;;5056436;28;19909;-86
2022/04/23 10:03:26;;;;;;;;;;;;;;;;;;5088654;28;19913;-86
2022/04/23 10:05:51;;;;;;;;;;;;;;;;;;5088745;28;19908;-86
2022/04/23 10:08:16;;;;;;;;;;;;;;;;;;5088117;28;19913;-86
2022/04/23 10:10:41;;;;;;;;;;;;;;;;;;5088269;28;19913;-86
2022/04/23 10:13:06;;;;;;;;;;;;;;;;;;5088898;28;19935;-86
2022/04/23 10:15:32;;;;;;;;;;;;;;;;;;5088648;28;19962;-86
2022/04/23 10:17:57;;;;;;;;;;;;;;;;;;5088490;28;19966;-86
2022/04/23 10:20:22;;;;;;;;;;;;;;;;;;5088765;28;19912;-86
2022/04/23 10:22:47;;;;;;;;;;;;;;;;;;5087481;28;20295;-86
2022/04/23 10:25:13;;;;;;;;;;;;;;;;;;5088438;28;19909;-86
2022/04/23 10:27:39;;;;;;;;;;;;;;;;;;5056133;28;19948;-87
2022/04/23 10:30:04;;;;;;;;;;;;;;;;;;5088215;28;19916;-86
2022/04/23 10:32:29;;;;;;;;;;;;;;;;;;5090777;28;19913;-86
2022/04/23 10:34:54;;;;;;;;;;;;;;;;;;5072858;28;20376;-86
2022/04/23 10:37:20;;;;;;;;;;;;;;;;;;5072806;28;19916;-86
2022/04/23 10:39:45;;;;;;;;;;;;;;;;;;5075553;28;19920;-86
2022/04/23 10:42:10;;;;;;;;;;;;;;;;;;5074339;28;19916;-86
2022/04/23 10:44:35;;;;;;;;;;;;;;;;;;5072325;28;19919;-85
2022/04/23 10:47:00;;;;;;;;;;;;;;;;;;5071297;28;19943;-86
2022/04/23 10:49:25;;;;;;;;;;;;;;;;;;5073768;28;19928;-86
2022/04/23 10:51:51;;;;;;;;;;;;;;;;;;5070062;28;19912;-87
2022/04/23 10:54:19;;;;;;;;;;;;;;;;;;5057054;28;20421;-86
2022/04/23 10:56:44;;;;;;;;;;;;;;;;;;5070063;28;20011;-86
2022/04/23 10:59:09;;;;;;;;;;;;;;;;;;5061706;28;20336;-86
2022/04/23 11:01:36;;;;;;;;;;;;;;;;;;5073852;28;20006;-86
2022/04/23 11:04:01;;;;;;;;;;;;;;;;;;5070498;28;19917;-85
2022/04/23 11:14:39;;;;;;;;;;;;;;;;;;5073539;28;20390;-86
2022/04/23 11:17:04;;;;;;;;;;;;;;;;;;5070286;28;19913;-86
2022/04/23 11:19:29;;;;;;;;;;;;;;;;;;5068969;28;19921;-86
2022/04/23 11:21:55;;;;;;;;;;;;;;;;;;5072338;28;19935;-86
2022/04/23 11:24:20;;;;;;;;;;;;;;;;;;5072117;28;19913;-86
2022/04/23 11:26:46;;;;;;;;;;;;;;;;;;5069625;28;20360;-86
2022/04/23 11:29:11;;;;;;;;;;;;;;;;;;5072887;28;19920;-86
2022/04/23 11:31:36;;;;;;;;;;;;;;;;;;5070029;28;19913;-86
2022/04/23 11:34:02;;;;;;;;;;;;;;;;;;5073079;28;19917;-86
2022/04/23 11:36:27;;;;;;;;;;;;;;;;;;5069918;28;20300;-86
2022/04/23 11:38:52;;;;;;;;;;;;;;;;;;5068370;28;19913;-86
2022/04/23 11:41:17;;;;;;;;;;;;;;;;;;5070935;28;19920;-86
2022/04/23 11:43:42;;;;;;;;;;;;;;;;;;5071080;28;19920;-86
2022/04/23 11:46:08;;;;;;;;;;;;;;;;;;5073227;28;19908;-86
2022/04/23 11:48:34;;;;;;;;;;;;;;;;;;5073314;28;20402;-85
2022/04/23 11:51:00;;;;;;;;;;;;;;;;;;5073378;28;20384;-85
2022/04/23 11:53:25;;;;;;;;;;;;;;;;;;5069065;28;20008;-86
2022/04/23 11:55:50;;;;;;;;;;;;;;;;;;5053294;28;19962;-85
2022/04/23 11:58:15;;;;;;;;;;;;;;;;;;5054487;28;20011;-86
2022/04/23 12:00:40;;;;;;;;;;;;;;;;;;5054435;28;19991;-86
2022/04/23 12:03:08;;;;;;;;;;;;;;;;;;5056455;28;20014;-86
2022/04/23 12:05:34;;;;;;;;;;;;;;;;;;5073086;28;19909;-86
2022/04/23 12:07:59;;;;;;;;;;;;;;;;;;5073224;28;20279;-86
2022/04/23 12:10:24;;;;;;;;;;;;;;;;;;5072936;28;19912;-86
2022/04/23 12:12:50;;;;;;;;;;;;;;;;;;5072958;28;19912;-86
2022/04/23 12:15:16;;;;;;;;;;;;;;;;;;5070301;28;19912;-86
2022/04/23 12:17:41;;;;;;;;;;;;;;;;;;5069420;28;19991;-86
2022/04/23 12:20:06;;;;;;;;;;;;;;;;;;5052798;28;19909;-86
2022/04/23 12:22:31;;;;;;;;;;;;;;;;;;5063108;28;19951;-86
2022/04/23 12:24:56;;;;;;;;;;;;;;;;;;5072615;28;20003;-86
2022/04/23 12:27:22;;;;;;;;;;;;;;;;;;5073199;28;19970;-86
2022/04/23 12:40:59;;;;;;;;;;;;;;;;;;5054384;28;19938;-86
2022/04/23 12:43:24;;;;;;;;;;;;;;;;;;5052583;28;19920;-86
2022/04/23 12:45:49;;;;;;;;;;;;;;;;;;5052493;28;20454;-86
2022/04/23 12:48:14;;;;;;;;;;;;;;;;;;5052398;28;19924;-86
2022/04/23 12:50:39;;;;;;;;;;;;;;;;;;5052526;28;19913;-86
2022/04/23 12:53:04;;;;;;;;;;;;;;;;;;5071929;28;20289;-86
2022/04/23 12:55:32;;;;;;;;;;;;;;;;;;5072469;28;20011;-85
2022/04/23 12:57:57;;;;;;;;;;;;;;;;;;5073142;28;19908;-86
2022/04/23 13:00:22;;;;;;;;;;;;;;;;;;5072464;28;19931;-86
2022/04/23 13:02:50;;;;;;;;;;;;;;;;;;5071162;28;19923;-86
2022/04/23 13:05:15;;;;;;;;;;;;;;;;;;5073769;28;19916;-86
2022/04/23 13:10:24;;;;;;;;;;;;;;;;;;5073654;28;19915;-87
2022/04/23 13:12:49;;;;;;;;;;;;;;;;;;5072345;28;19909;-86
2022/04/23 13:15:15;;;;;;;;;;;;;;;;;;5068448;28;19918;-86
2022/04/23 13:17:41;;;;;;;;;;;;;;;;;;5052581;28;19913;-86
2022/04/23 13:20:07;;;;;;;;;;;;;;;;;;5053549;28;19963;-85
2022/04/23 13:22:32;;;;;;;;;;;;;;;;;;5052212;28;19967;-86
2022/04/23 13:24:57;;;;;;;;;;;;;;;;;;5052812;28;19959;-86
2022/04/23 13:27:23;;;;;;;;;;;;;;;;;;5051859;28;19913;-87
2022/04/23 13:29:48;;;;;;;;;;;;;;;;;;5052115;28;19909;-86
2022/04/23 13:32:13;;;;;;;;;;;;;;;;;;5052149;28;19953;-86
2022/04/23 13:34:38;;;;;;;;;;;;;;;;;;5052066;28;19916;-86
2022/04/23 13:37:03;;;;;;;;;;;;;;;;;;5051738;28;20357;-86
2022/04/23 13:39:29;;;;;;;;;;;;;;;;;;5051967;28;19923;-85
2022/04/23 13:41:54;;;;;;;;;;;;;;;;;;5051784;28;19915;-86
2022/04/23 13:44:19;;;;;;;;;;;;;;;;;;5053304;28;19913;-86
2022/04/23 13:46:45;;;;;;;;;;;;;;;;;;5055639;28;19925;-86
2022/04/23 13:49:10;;;;;;;;;;;;;;;;;;5055404;28;19940;-86
2022/04/23 13:51:35;;;;;;;;;;;;;;;;;;5072706;28;19952;-86
2022/04/23 13:54:00;;;;;;;;;;;;;;;;;;5089187;28;19948;-86
2022/04/23 13:56:26;;;;;;;;;;;;;;;;;;5089292;28;20043;-86
2022/04/23 13:58:51;;;;;;;;;;;;;;;;;;5089158;28;19920;-86
2022/04/23 14:01:16;;;;;;;;;;;;;;;;;;5088226;28;19915;-86
2022/04/23 14:11:53;;;;;;;;;;;;;;;;;;5056600;28;19916;-86
2022/04/23 14:14:18;;;;;;;;;;;;;;;;;;5061624;28;19913;-85
2022/04/23 14:16:43;;;;;;;;;;;;;;;;;;5076505;28;19916;-86
2022/04/23 14:19:08;;;;;;;;;;;;;;;;;;5075219;28;20363;-86
2022/04/23 14:21:33;;;;;;;;;;;;;;;;;;5075077;28;19909;-86
2022/04/23 14:23:59;;;;;;;;;;;;;;;;;;5075151;28;19916;-85
2022/04/23 14:26:24;;;;;;;;;;;;;;;;;;5075345;28;20368;-86
2022/04/23 14:28:50;;;;;;;;;;;;;;;;;;5075032;28;19920;-86
2022/04/23 14:31:15;;;;;;;;;;;;;;;;;;5074944;28;20379;-86
2022/04/23 14:33:40;;;;;;;;;;;;;;;;;;5076327;28;19927;-86
2022/04/23 14:36:05;;;;;;;;;;;;;;;;;;5070803;28;19913;-86
2022/04/23 14:38:30;;;;;;;;;;;;;;;;;;5054872;28;20269;-86
2022/04/23 14:40:55;;;;;;;;;;;;;;;;;;5056003;28;19909;-86
2022/04/23 14:43:20;;;;;;;;;;;;;;;;;;5070683;28;19916;-86
2022/04/23 14:45:46;;;;;;;;;;;;;;;;;;5075956;28;19959;-86
2022/04/23 14:48:11;;;;;;;;;;;;;;;;;;5074637;28;19916;-86
2022/04/23 14:53:20;;;;;;;;;;;;;;;;;;5055830;28;19966;-86
2022/04/23 14:55:46;;;;;;;;;;;;;;;;;;5054218;28;20376;-86
2022/04/23 14:58:11;;;;;;;;;;;;;;;;;;5054427;28;19913;-86
2022/04/23 15:00:37;;;;;;;;;;;;;;;;;;5059991;28;20344;-86
2022/04/23 15:03:02;;;;;;;;;;;;;;;;;;5075473;28;19912;-86
2022/04/23 15:05:27;;;;;;;;;;;;;;;;;;5074355;28;19969;-86
2022/04/23 15:07:52;;;;;;;;;;;;;;;;;;5074377;28;20319;-86
2022/04/23 15:10:19;;;;;;;;;;;;;;;;;;5074338;28;19908;-86
2022/04/23 15:12:44;;;;;;;;;;;;;;;;;;5066882;28;19913;-86
2022/04/23 15:15:09;;;;;;;;;;;;;;;;;;5054105;28;19955;-86
2022/04/23 15:17:35;;;;;;;;;;;;;;;;;;5054272;28;19913;-85
2022/04/23 15:20:00;;;;;;;;;;;;;;;;;;5054098;28;19916;-86
2022/04/23 15:22:25;;;;;;;;;;;;;;;;;;5058699;28;19917;-85
2022/04/23 15:24:50;;;;;;;;;;;;;;;;;;5075106;28;20001;-86
2022/04/23 15:27:16;;;;;;;;;;;;;;;;;;5073891;28;19915;-86
2022/04/23 15:29:41;;;;;;;;;;;;;;;;;;5073758;28;19908;-86
2022/04/23 15:32:06;;;;;;;;;;;;;;;;;;5073827;28;19916;-86
2022/04/23 15:34:31;;;;;;;;;;;;;;;;;;5072941;28;19913;-86
2022/04/23 15:36:57;;;;;;;;;;;;;;;;;;5073598;28;20263;-87
2022/04/23 15:39:22;;;;;;;;;;;;;;;;;;5074362;28;19920;-86
2022/04/23 15:41:47;;;;;;;;;;;;;;;;;;5074600;28;19975;-86
2022/04/23 15:44:12;;;;;;;;;;;;;;;;;;5073490;28;19970;-86
2022/04/23 15:46:37;;;;;;;;;;;;;;;;;;5072431;28;19921;-86
2022/04/23 15:49:02;;;;;;;;;;;;;;;;;;5073439;28;20367;-86
2022/04/23 15:51:28;;;;;;;;;;;;;;;;;;5069960;28;19909;-87
2022/04/23 15:53:53;;;;;;;;;;;;;;;;;;5053402;28;20336;-86
2022/04/23 15:56:19;;;;;;;;;;;;;;;;;;5057684;28;20372;-86
2022/04/23 15:58:44;;;;;;;;;;;;;;;;;;5072383;28;20015;-86
2022/04/23 16:01:09;;;;;;;;;;;;;;;;;;5074328;28;20304;-87
2022/04/23 16:03:34;;;;;;;;;;;;;;;;;;5073169;28;19912;-87
2022/04/23 16:06:00;;;;;;;;;;;;;;;;;;5071387;28;19909;-86
2022/04/23 16:08:25;;;;;;;;;;;;;;;;;;5070360;28;19963;-86
2022/04/23 16:10:50;;;;;;;;;;;;;;;;;;5072111;28;19916;-86
2022/04/23 16:13:15;;;;;;;;;;;;;;;;;;5073056;28;20285;-86
2022/04/23 16:15:40;;;;;;;;;;;;;;;;;;5069057;28;19963;-87
2022/04/23 16:18:05;;;;;;;;;;;;;;;;;;5052933;28;20352;-86
2022/04/23 16:20:31;;;;;;;;;;;;;;;;;;5052881;28;19916;-86
2022/04/23 16:22:56;;;;;;;;;;;;;;;;;;5054126;28;20359;-86
2022/04/23 16:25:21;;;;;;;;;;;;;;;;;;5054144;28;19909;-86
2022/04/23 16:27:46;;;;;;;;;;;;;;;;;;5066330;28;20356;-86
2022/04/23 16:30:11;;;;;;;;;;;;;;;;;;5071434;28;19913;-87
2022/04/23 16:32:36;;;;;;;;;;;;;;;;;;5072639;28;19908;-86
2022/04/23 16:35:02;;;;;;;;;;;;;;;;;;5072812;28;19913;-87
2022/04/23 16:48:22;;;;;;;;;;;;;;;;;;5073628;28;20413;-86
2022/04/23 16:50:48;;;;;;;;;;;;;;;;;;5073532;28;20003;-86
2022/04/23 16:53:13;;;;;;;;;;;;;;;;;;5072531;28;20261;-86
2022/04/23 16:55:38;;;;;;;;;;;;;;;;;;5072313;28;20478;-86
2022/04/23 16:58:03;;;;;;;;;;;;;;;;;;5072444;28;19912;-86
2022/04/23 17:00:28;;;;;;;;;;;;;;;;;;5072570;28;19909;-86
2022/04/23 17:02:53;;;;;;;;;;;;;;;;;;5072381;28;20360;-86
2022/04/23 17:05:18;;;;;;;;;;;;;;;;;;5072315;28;20012;-87
2022/04/23 17:07:43;;;;;;;;;;;;;;;;;;5072399;28;19912;-86
2022/04/23 17:10:08;;;;;;;;;;;;;;;;;;5072308;28;19966;-87
2022/04/23 17:12:34;;;;;;;;;;;;;;;;;;5072207;28;20322;-86
2022/04/23 17:15:00;;;;;;;;;;;;;;;;;;5072267;28;19913;-86
2022/04/23 17:17:25;;;;;;;;;;;;;;;;;;5072323;28;19948;-86
2022/04/23 17:19:50;;;;;;;;;;;;;;;;;;5076236;28;20283;-87
2022/04/23 17:22:16;;;;;;;;;;;;;;;;;;5077265;28;19912;-86
2022/04/23 17:24:41;;;;;;;;;;;;;;;;;;5076177;28;20398;-86
2022/04/23 17:27:06;;;;;;;;;;;;;;;;;;5077191;28;20015;-86
2022/04/23 17:29:31;;;;;;;;;;;;;;;;;;5075715;28;19915;-87
2022/04/23 17:31:56;;;;;;;;;;;;;;;;;;5075873;28;20003;-86